Aviation Digital Data Service (ADDS)

Output produced by METARs form (2328 UTC 26 February 2020)
found at http://www.aviationweather.gov/metar/data/
 
METAR text: KPNS 262253Z 35010KT 10SM FEW085 12/04 A3005 RMK AO2 PK WND 34026/2154 RAE05B23E33 SLP178 P0000 T01170044
Conditions at: KPNS (PENSACOLA , FL, US) observed 2253 UTC 26 February 2020
Temperature: 11.7°C (53°F)
Dewpoint: 4.4°C (40°F) [RH = 61%]
Pressure (altimeter): 30.05 inches Hg (1017.7 mb)
[Sea-level pressure: 1017.8 mb]
Winds: from the N (350 degrees) at 12 MPH (10 knots; 5.1 m/s)
Visibility: 10 or more miles (16+ km)
Ceiling: at least 12,000 feet AGL
Clouds: few clouds at 8500 feet AGL
Weather: no significant weather observed at this time

METAR text: KPNS 262153Z COR 33025G30KT 10SM -RA BKN030 BKN050 OVC080 14/06 A3004 RMK AO2 PK WND 32030/2152 RAB53 PRESRR SLP174 P0000 T01390056
Conditions at: KPNS (PENSACOLA , FL, US) observed 2153 UTC 26 February 2020
Temperature: 13.9°C (57°F)
Dewpoint: 5.6°C (42°F) [RH = 57%]
Pressure (altimeter): 30.04 inches Hg (1017.4 mb)
[Sea-level pressure: 1017.4 mb]
Winds: from the NNW (330 degrees) at 29 MPH (25 knots; 12.9 m/s)
gusting to 34 MPH (30 knots; 15.4 m/s)
Visibility: 10 or more miles (16+ km)
Ceiling: 3000 feet AGL
Clouds: broken clouds at 3000 feet AGL
broken clouds at 5000 feet AGL
overcast cloud deck at 8000 feet AGL
Weather: -RA  (light rain)

METAR text: KPNS 262053Z AUTO 33011KT 10SM FEW044 BKN120 16/05 A3002 RMK AO2 SLP166 T01560050 53002
Conditions at: KPNS (PENSACOLA , FL, US) observed 2053 UTC 26 February 2020
Temperature: 15.6°C (60°F)
Dewpoint: 5.0°C (41°F) [RH = 49%]
Pressure (altimeter): 30.02 inches Hg (1016.7 mb)
[Sea-level pressure: 1016.6 mb]
Winds: from the NNW (330 degrees) at 13 MPH (11 knots; 5.7 m/s)
Visibility: 10 or more miles (16+ km)
Ceiling: 12000 feet AGL
Clouds: few clouds at 4400 feet AGL
broken clouds at 12000 feet AGL
Weather: automated observation with no human augmentation;
there may or may not be significant weather present at this time

METAR text: KPNS 261953Z 32018G25KT 10SM BKN035 BKN050 16/05 A3000 RMK AO2 SLP161 T01560050
Conditions at: KPNS (PENSACOLA , FL, US) observed 1953 UTC 26 February 2020
Temperature: 15.6°C (60°F)
Dewpoint: 5.0°C (41°F) [RH = 49%]
Pressure (altimeter): 30.00 inches Hg (1016.0 mb)
[Sea-level pressure: 1016.1 mb]
Winds: from the NW (320 degrees) at 21 MPH (18 knots; 9.3 m/s)
gusting to 29 MPH (25 knots; 12.9 m/s)
Visibility: 10 or more miles (16+ km)
Ceiling: 3500 feet AGL
Clouds: broken clouds at 3500 feet AGL
broken clouds at 5000 feet AGL
Weather: no significant weather observed at this time

METAR text: KPNS 261853Z 35009KT 10SM SCT075 BKN095 BKN120 16/06 A2999 RMK AO2 SLP158 T01560056
Conditions at: KPNS (PENSACOLA , FL, US) observed 1853 UTC 26 February 2020
Temperature: 15.6°C (60°F)
Dewpoint: 5.6°C (42°F) [RH = 51%]
Pressure (altimeter): 29.99 inches Hg (1015.7 mb)
[Sea-level pressure: 1015.8 mb]
Winds: from the N (350 degrees) at 10 MPH (9 knots; 4.6 m/s)
Visibility: 10 or more miles (16+ km)
Ceiling: 9500 feet AGL
Clouds: scattered clouds at 7500 feet AGL
broken clouds at 9500 feet AGL
broken clouds at 12000 feet AGL
Weather: no significant weather observed at this time

METAR text: KPNS 261753Z 36008KT 10SM SCT050 BKN065 BKN120 15/06 A3001 RMK AO2 SLP164 T01500061 10150 20122 58014
Conditions at: KPNS (PENSACOLA , FL, US) observed 1753 UTC 26 February 2020
Temperature: 15.0°C (59°F)
Dewpoint: 6.1°C (43°F) [RH = 55%]
Pressure (altimeter): 30.01 inches Hg (1016.3 mb)
[Sea-level pressure: 1016.4 mb]
Winds: from the N (360 degrees) at 9 MPH (8 knots; 4.1 m/s)
Visibility: 10 or more miles (16+ km)
Ceiling: 6500 feet AGL
Clouds: scattered clouds at 5000 feet AGL
broken clouds at 6500 feet AGL
broken clouds at 12000 feet AGL
Weather: no significant weather observed at this time

METAR text: KPNS 261653Z 35011KT 10SM OVC045 13/06 A3006 RMK AO2 SLP182 T01330061
Conditions at: KPNS (PENSACOLA , FL, US) observed 1653 UTC 26 February 2020
Temperature: 13.3°C (56°F)
Dewpoint: 6.1°C (43°F) [RH = 62%]
Pressure (altimeter): 30.06 inches Hg (1018.0 mb)
[Sea-level pressure: 1018.2 mb]
Winds: from the N (350 degrees) at 13 MPH (11 knots; 5.7 m/s)
Visibility: 10 or more miles (16+ km)
Ceiling: 4500 feet AGL
Clouds: overcast cloud deck at 4500 feet AGL
Weather: no significant weather observed at this time

METAR text: KPNS 261553Z 35010G22KT 10SM OVC039 13/06 A3005 RMK AO2 PK WND 34027/1527 SLP179 T01330061
Conditions at: KPNS (PENSACOLA , FL, US) observed 1553 UTC 26 February 2020
Temperature: 13.3°C (56°F)
Dewpoint: 6.1°C (43°F) [RH = 62%]
Pressure (altimeter): 30.05 inches Hg (1017.7 mb)
[Sea-level pressure: 1017.9 mb]
Winds: from the N (350 degrees) at 12 MPH (10 knots; 5.1 m/s)
gusting to 25 MPH (22 knots; 11.3 m/s)
Visibility: 10 or more miles (16+ km)
Ceiling: 3900 feet AGL
Clouds: overcast cloud deck at 3900 feet AGL
Weather: no significant weather observed at this time

METAR text: KPNS 261453Z 32016G24KT 10SM FEW016 SCT020 BKN035 13/09 A3005 RMK AO2 PRESRR SLP177 T01280089 53048
Conditions at: KPNS (PENSACOLA , FL, US) observed 1453 UTC 26 February 2020
Temperature: 12.8°C (55°F)
Dewpoint: 8.9°C (48°F) [RH = 77%]
Pressure (altimeter): 30.05 inches Hg (1017.7 mb)
[Sea-level pressure: 1017.7 mb]
Winds: from the NW (320 degrees) at 18 MPH (16 knots; 8.2 m/s)
gusting to 28 MPH (24 knots; 12.3 m/s)
Visibility: 10 or more miles (16+ km)
Ceiling: 3500 feet AGL
Clouds: few clouds at 1600 feet AGL
scattered clouds at 2000 feet AGL
broken clouds at 3500 feet AGL
Weather: no significant weather observed at this time

METAR text: KPNS 261353Z 36007KT 10SM CLR 14/10 A2998 RMK AO2 SLP153 T01390100
Conditions at: KPNS (PENSACOLA , FL, US) observed 1353 UTC 26 February 2020
Temperature: 13.9°C (57°F)
Dewpoint: 10.0°C (50°F) [RH = 77%]
Pressure (altimeter): 29.98 inches Hg (1015.3 mb)
[Sea-level pressure: 1015.3 mb]
Winds: from the N (360 degrees) at 8 MPH (7 knots; 3.6 m/s)
Visibility: 10 or more miles (16+ km)
Ceiling: at least 12,000 feet AGL
Clouds: sky clear below 12,000 feet AGL
Weather: no significant weather observed at this time

METAR text: KPNS 261253Z 34008KT 10SM CLR 13/11 A2993 RMK AO2 SLP135 T01280106
Conditions at: KPNS (PENSACOLA , FL, US) observed 1253 UTC 26 February 2020
Temperature: 12.8°C (55°F)
Dewpoint: 10.6°C (51°F) [RH = 86%]
Pressure (altimeter): 29.93 inches Hg (1013.6 mb)
[Sea-level pressure: 1013.5 mb]
Winds: from the NNW (340 degrees) at 9 MPH (8 knots; 4.1 m/s)
Visibility: 10 or more miles (16+ km)
Ceiling: at least 12,000 feet AGL
Clouds: sky clear below 12,000 feet AGL
Weather: no significant weather observed at this time

METAR text: KPNS 261153Z 36003KT 10SM CLR 13/11 A2991 RMK AO2 SLP129 T01330106 10150 20128 51006
Conditions at: KPNS (PENSACOLA , FL, US) observed 1153 UTC 26 February 2020
Temperature: 13.3°C (56°F)
Dewpoint: 10.6°C (51°F) [RH = 84%]
Pressure (altimeter): 29.91 inches Hg (1013.0 mb)
[Sea-level pressure: 1012.9 mb]
Winds: from the N (360 degrees) at 3 MPH (3 knots; 1.5 m/s)
Visibility: 10 or more miles (16+ km)
Ceiling: at least 12,000 feet AGL
Clouds: sky clear below 12,000 feet AGL
Weather: no significant weather observed at this time

METAR text: KPNS 261053Z 35004KT 10SM CLR 13/11 A2990 RMK AO2 SLP127 T01330106
Conditions at: KPNS (PENSACOLA , FL, US) observed 1053 UTC 26 February 2020
Temperature: 13.3°C (56°F)
Dewpoint: 10.6°C (51°F) [RH = 84%]
Pressure (altimeter): 29.90 inches Hg (1012.6 mb)
[Sea-level pressure: 1012.7 mb]
Winds: from the N (350 degrees) at 5 MPH (4 knots; 2.1 m/s)
Visibility: 10 or more miles (16+ km)
Ceiling: at least 12,000 feet AGL
Clouds: sky clear below 12,000 feet AGL
Weather: no significant weather observed at this time

METAR text: KPNS 260953Z 35006KT 10SM CLR 14/11 A2990 RMK AO2 SLP126 T01390106
Conditions at: KPNS (PENSACOLA , FL, US) observed 0953 UTC 26 February 2020
Temperature: 13.9°C (57°F)
Dewpoint: 10.6°C (51°F) [RH = 80%]
Pressure (altimeter): 29.90 inches Hg (1012.6 mb)
[Sea-level pressure: 1012.6 mb]
Winds: from the N (350 degrees) at 7 MPH (6 knots; 3.1 m/s)
Visibility: 10 or more miles (16+ km)
Ceiling: at least 12,000 feet AGL
Clouds: sky clear below 12,000 feet AGL
Weather: no significant weather observed at this time

METAR text: KPNS 260853Z 35005KT 10SM CLR 14/11 A2989 RMK AO2 SLP123 T01390111 58007
Conditions at: KPNS (PENSACOLA , FL, US) observed 0853 UTC 26 February 2020
Temperature: 13.9°C (57°F)
Dewpoint: 11.1°C (52°F) [RH = 83%]
Pressure (altimeter): 29.89 inches Hg (1012.3 mb)
[Sea-level pressure: 1012.3 mb]
Winds: from the N (350 degrees) at 6 MPH (5 knots; 2.6 m/s)
Visibility: 10 or more miles (16+ km)
Ceiling: at least 12,000 feet AGL
Clouds: sky clear below 12,000 feet AGL
Weather: no significant weather observed at this time

METAR text: KPNS 260753Z 36010KT 10SM CLR 15/11 A2989 RMK AO2 SLP123 T01500111
Conditions at: KPNS (PENSACOLA , FL, US) observed 0753 UTC 26 February 2020
Temperature: 15.0°C (59°F)
Dewpoint: 11.1°C (52°F) [RH = 77%]
Pressure (altimeter): 29.89 inches Hg (1012.3 mb)
[Sea-level pressure: 1012.3 mb]
Winds: from the N (360 degrees) at 12 MPH (10 knots; 5.1 m/s)
Visibility: 10 or more miles (16+ km)
Ceiling: at least 12,000 feet AGL
Clouds: sky clear below 12,000 feet AGL
Weather: no significant weather observed at this time

METAR text: KPNS 260653Z 35005KT 10SM CLR 14/12 A2991 RMK AO2 SLP129 T01440122
Conditions at: KPNS (PENSACOLA , FL, US) observed 0653 UTC 26 February 2020
Temperature: 14.4°C (58°F)
Dewpoint: 12.2°C (54°F) [RH = 87%]
Pressure (altimeter): 29.91 inches Hg (1013.0 mb)
[Sea-level pressure: 1012.9 mb]
Winds: from the N (350 degrees) at 6 MPH (5 knots; 2.6 m/s)
Visibility: 10 or more miles (16+ km)
Ceiling: at least 12,000 feet AGL
Clouds: sky clear below 12,000 feet AGL
Weather: no significant weather observed at this time

METAR text: KPNS 260553Z 34005KT 10SM CLR 14/13 A2991 RMK AO2 SLP129 T01440128 10178 20144 402170144 51002
Conditions at: KPNS (PENSACOLA , FL, US) observed 0553 UTC 26 February 2020
Temperature: 14.4°C (58°F)
Dewpoint: 12.8°C (55°F) [RH = 90%]
Pressure (altimeter): 29.91 inches Hg (1013.0 mb)
[Sea-level pressure: 1012.9 mb]
Winds: from the NNW (340 degrees) at 6 MPH (5 knots; 2.6 m/s)
Visibility: 10 or more miles (16+ km)
Ceiling: at least 12,000 feet AGL
Clouds: sky clear below 12,000 feet AGL
Weather: no significant weather observed at this time

METAR text: KPNS 260453Z 35006KT 10SM CLR 16/14 A2990 RMK AO2 SLP127 T01560139
Conditions at: KPNS (PENSACOLA , FL, US) observed 0453 UTC 26 February 2020
Temperature: 15.6°C (60°F)
Dewpoint: 13.9°C (57°F) [RH = 90%]
Pressure (altimeter): 29.90 inches Hg (1012.6 mb)
[Sea-level pressure: 1012.7 mb]
Winds: from the N (350 degrees) at 7 MPH (6 knots; 3.1 m/s)
Visibility: 10 or more miles (16+ km)
Ceiling: at least 12,000 feet AGL
Clouds: sky clear below 12,000 feet AGL
Weather: no significant weather observed at this time

METAR text: KPNS 260409Z 34004KT 10SM FEW020 16/15 A2991 RMK AO2 T01610150
Conditions at: KPNS (PENSACOLA , FL, US) observed 0409 UTC 26 February 2020
Temperature: 16.1°C (61°F)
Dewpoint: 15.0°C (59°F) [RH = 93%]
Pressure (altimeter): 29.91 inches Hg (1013.0 mb)
Winds: from the NNW (340 degrees) at 5 MPH (4 knots; 2.1 m/s)
Visibility: 10 or more miles (16+ km)
Ceiling: at least 12,000 feet AGL
Clouds: few clouds at 2000 feet AGL
Weather: no significant weather observed at this time

METAR text: KPNS 260353Z 33004KT 10SM BKN019 16/15 A2991 RMK AO2 SLP130 T01610150
Conditions at: KPNS (PENSACOLA , FL, US) observed 0353 UTC 26 February 2020
Temperature: 16.1°C (61°F)
Dewpoint: 15.0°C (59°F) [RH = 93%]
Pressure (altimeter): 29.91 inches Hg (1013.0 mb)
[Sea-level pressure: 1013.0 mb]
Winds: from the NNW (330 degrees) at 5 MPH (4 knots; 2.1 m/s)
Visibility: 10 or more miles (16+ km)
Ceiling: 1900 feet AGL
Clouds: broken clouds at 1900 feet AGL
Weather: no significant weather observed at this time

METAR text: KPNS 260343Z 34003KT 10SM BKN019 17/15 A2991 RMK AO2 T01670150
Conditions at: KPNS (PENSACOLA , FL, US) observed 0343 UTC 26 February 2020
Temperature: 16.7°C (62°F)
Dewpoint: 15.0°C (59°F) [RH = 90%]
Pressure (altimeter): 29.91 inches Hg (1013.0 mb)
Winds: from the NNW (340 degrees) at 3 MPH (3 knots; 1.5 m/s)
Visibility: 10 or more miles (16+ km)
Ceiling: 1900 feet AGL
Clouds: broken clouds at 1900 feet AGL
Weather: no significant weather observed at this time

METAR text: KPNS 260253Z 33004KT 10SM FEW018 16/15 A2990 RMK AO2 SLP127 T01610150 51020
Conditions at: KPNS (PENSACOLA , FL, US) observed 0253 UTC 26 February 2020
Temperature: 16.1°C (61°F)
Dewpoint: 15.0°C (59°F) [RH = 93%]
Pressure (altimeter): 29.90 inches Hg (1012.6 mb)
[Sea-level pressure: 1012.7 mb]
Winds: from the NNW (330 degrees) at 5 MPH (4 knots; 2.1 m/s)
Visibility: 10 or more miles (16+ km)
Ceiling: at least 12,000 feet AGL
Clouds: few clouds at 1800 feet AGL
Weather: no significant weather observed at this time

METAR text: KPNS 260153Z 34003KT 10SM CLR 17/15 A2989 RMK AO2 SLP122 T01670150
Conditions at: KPNS (PENSACOLA , FL, US) observed 0153 UTC 26 February 2020
Temperature: 16.7°C (62°F)
Dewpoint: 15.0°C (59°F) [RH = 90%]
Pressure (altimeter): 29.89 inches Hg (1012.3 mb)
[Sea-level pressure: 1012.2 mb]
Winds: from the NNW (340 degrees) at 3 MPH (3 knots; 1.5 m/s)
Visibility: 10 or more miles (16+ km)
Ceiling: at least 12,000 feet AGL
Clouds: sky clear below 12,000 feet AGL
Weather: no significant weather observed at this time

METAR text: KPNS 260053Z 00000KT 10SM CLR 17/15 A2987 RMK AO2 SLP116 T01720150
Conditions at: KPNS (PENSACOLA , FL, US) observed 0053 UTC 26 February 2020
Temperature: 17.2°C (63°F)
Dewpoint: 15.0°C (59°F) [RH = 87%]
Pressure (altimeter): 29.87 inches Hg (1011.6 mb)
[Sea-level pressure: 1011.6 mb]
Winds: calm
Visibility: 10 or more miles (16+ km)
Ceiling: at least 12,000 feet AGL
Clouds: sky clear below 12,000 feet AGL
Weather: no significant weather observed at this time

METAR text: KPNS 252353Z AUTO 00000KT 10SM CLR 18/16 A2984 RMK AO2 SLP107 60000 T01830156 10217 20183 56003
Conditions at: KPNS (PENSACOLA , FL, US) observed 2353 UTC 25 February 2020
Temperature: 18.3°C (65°F)
Dewpoint: 15.6°C (60°F) [RH = 84%]
Pressure (altimeter): 29.84 inches Hg (1010.6 mb)
[Sea-level pressure: 1010.7 mb]
Winds: calm
Visibility: 10 or more miles (16+ km)
Ceiling: at least 12,000 feet AGL
Clouds: sky clear below 12,000 feet AGL
Weather: automated observation with no human augmentation;
there may or may not be significant weather present at this time

METAR text: KPNS 252253Z 33004KT 10SM CLR 19/16 A2984 RMK AO2 RAE01 SLP108 P0000 T01890156
Conditions at: KPNS (PENSACOLA , FL, US) observed 2253 UTC 25 February 2020
Temperature: 18.9°C (66°F)
Dewpoint: 15.6°C (60°F) [RH = 81%]
Pressure (altimeter): 29.84 inches Hg (1010.6 mb)
[Sea-level pressure: 1010.8 mb]
Winds: from the NNW (330 degrees) at 5 MPH (4 knots; 2.1 m/s)
Visibility: 10 or more miles (16+ km)
Ceiling: at least 12,000 feet AGL
Clouds: sky clear below 12,000 feet AGL
Weather: no significant weather observed at this time

METAR text: KPNS 252153Z 08003KT 10SM -RA SCT030 BKN085 OVC110 20/15 A2982 RMK AO2 RAB52 SLP100 P0000 T02000150
Conditions at: KPNS (PENSACOLA , FL, US) observed 2153 UTC 25 February 2020
Temperature: 20.0°C (68°F)
Dewpoint: 15.0°C (59°F) [RH = 73%]
Pressure (altimeter): 29.82 inches Hg (1009.9 mb)
[Sea-level pressure: 1010.0 mb]
Winds: from the E (80 degrees) at 3 MPH (3 knots; 1.5 m/s)
Visibility: 10 or more miles (16+ km)
Ceiling: 8500 feet AGL
Clouds: scattered clouds at 3000 feet AGL
broken clouds at 8500 feet AGL
overcast cloud deck at 11000 feet AGL
Weather: -RA  (light rain)

METAR text: KPNS 252053Z 33007KT 10SM SCT026 SCT110 21/14 A2985 RMK AO2 PRESRR SLP110 T02060144 55001
Conditions at: KPNS (PENSACOLA , FL, US) observed 2053 UTC 25 February 2020
Temperature: 20.6°C (69°F)
Dewpoint: 14.4°C (58°F) [RH = 68%]
Pressure (altimeter): 29.85 inches Hg (1010.9 mb)
[Sea-level pressure: 1011.0 mb]
Winds: from the NNW (330 degrees) at 8 MPH (7 knots; 3.6 m/s)
Visibility: 10 or more miles (16+ km)
Ceiling: at least 12,000 feet AGL
Clouds: scattered clouds at 2600 feet AGL
scattered clouds at 11000 feet AGL
Weather: no significant weather observed at this time

METAR text: KPNS 251953Z VRB03KT 10SM SCT018 22/15 A2981 RMK AO2 SLP096 T02170150
Conditions at: KPNS (PENSACOLA , FL, US) observed 1953 UTC 25 February 2020
Temperature: 21.7°C (71°F)
Dewpoint: 15.0°C (59°F) [RH = 66%]
Pressure (altimeter): 29.81 inches Hg (1009.6 mb)
[Sea-level pressure: 1009.6 mb]
Winds: variable direction winds at 3 MPH (3 knots; 1.5 m/s)
Visibility: 10 or more miles (16+ km)
Ceiling: at least 12,000 feet AGL
Clouds: scattered clouds at 1800 feet AGL
Weather: no significant weather observed at this time

METAR text: KPNS 251853Z VRB03KT 10SM SCT018 21/15 A2983 RMK AO2 SLP103 T02110150
Conditions at: KPNS (PENSACOLA , FL, US) observed 1853 UTC 25 February 2020
Temperature: 21.1°C (70°F)
Dewpoint: 15.0°C (59°F) [RH = 68%]
Pressure (altimeter): 29.83 inches Hg (1010.2 mb)
[Sea-level pressure: 1010.3 mb]
Winds: variable direction winds at 3 MPH (3 knots; 1.5 m/s)
Visibility: 10 or more miles (16+ km)
Ceiling: at least 12,000 feet AGL
Clouds: scattered clouds at 1800 feet AGL
Weather: no significant weather observed at this time

METAR text: KPNS 251837Z 00000KT 10SM SCT018 21/16 A2984 RMK AO2 T02110156
Conditions at: KPNS (PENSACOLA , FL, US) observed 1837 UTC 25 February 2020
Temperature: 21.1°C (70°F)
Dewpoint: 15.6°C (60°F) [RH = 71%]
Pressure (altimeter): 29.84 inches Hg (1010.6 mb)
Winds: calm
Visibility: 10 or more miles (16+ km)
Ceiling: at least 12,000 feet AGL
Clouds: scattered clouds at 1800 feet AGL
Weather: no significant weather observed at this time

METAR text: KPNS 251753Z VRB04KT 10SM SCT019 SCT023 21/16 A2985 RMK AO2 SLP111 T02060156 10211 20183 58002
Conditions at: KPNS (PENSACOLA , FL, US) observed 1753 UTC 25 February 2020
Temperature: 20.6°C (69°F)
Dewpoint: 15.6°C (60°F) [RH = 73%]
Pressure (altimeter): 29.85 inches Hg (1010.9 mb)
[Sea-level pressure: 1011.1 mb]
Winds: variable direction winds at 5 MPH (4 knots; 2.1 m/s)
Visibility: 10 or more miles (16+ km)
Ceiling: at least 12,000 feet AGL
Clouds: scattered clouds at 1900 feet AGL
scattered clouds at 2300 feet AGL
Weather: no significant weather observed at this time

METAR text: KPNS 251653Z VRB03KT 10SM BKN009 BKN080 21/17 A2985 RMK AO2 SLP110 T02060167
Conditions at: KPNS (PENSACOLA , FL, US) observed 1653 UTC 25 February 2020
Temperature: 20.6°C (69°F)
Dewpoint: 16.7°C (62°F) [RH = 78%]
Pressure (altimeter): 29.85 inches Hg (1010.9 mb)
[Sea-level pressure: 1011.0 mb]
Winds: variable direction winds at 3 MPH (3 knots; 1.5 m/s)
Visibility: 10 or more miles (16+ km)
Ceiling: 900 feet AGL
Clouds: broken clouds at 900 feet AGL
broken clouds at 8000 feet AGL
Weather: no significant weather observed at this time

METAR text: KPNS 251553Z 34008KT 10SM BKN009 BKN016 20/17 A2986 RMK AO2 SLP114 T02000167
Conditions at: KPNS (PENSACOLA , FL, US) observed 1553 UTC 25 February 2020
Temperature: 20.0°C (68°F)
Dewpoint: 16.7°C (62°F) [RH = 81%]
Pressure (altimeter): 29.86 inches Hg (1011.3 mb)
[Sea-level pressure: 1011.4 mb]
Winds: from the NNW (340 degrees) at 9 MPH (8 knots; 4.1 m/s)
Visibility: 10 or more miles (16+ km)
Ceiling: 900 feet AGL
Clouds: broken clouds at 900 feet AGL
broken clouds at 1600 feet AGL
Weather: no significant weather observed at this time

METAR text: KPNS 251453Z 33009KT 10SM BKN006 19/17 A2986 RMK AO2 SLP112 T01940172 51016
Conditions at: KPNS (PENSACOLA , FL, US) observed 1453 UTC 25 February 2020
Temperature: 19.4°C (67°F)
Dewpoint: 17.2°C (63°F) [RH = 87%]
Pressure (altimeter): 29.86 inches Hg (1011.3 mb)
[Sea-level pressure: 1011.2 mb]
Winds: from the NNW (330 degrees) at 10 MPH (9 knots; 4.6 m/s)
Visibility: 10 or more miles (16+ km)
Ceiling: 600 feet AGL
Clouds: broken clouds at 600 feet AGL
Weather: no significant weather observed at this time

METAR text: KPNS 251441Z 33010KT 10SM BKN006 20/18 A2985 RMK AO2 T02000183
Conditions at: KPNS (PENSACOLA , FL, US) observed 1441 UTC 25 February 2020
Temperature: 20.0°C (68°F)
Dewpoint: 18.3°C (65°F) [RH = 90%]
Pressure (altimeter): 29.85 inches Hg (1010.9 mb)
Winds: from the NNW (330 degrees) at 12 MPH (10 knots; 5.1 m/s)
Visibility: 10 or more miles (16+ km)
Ceiling: 600 feet AGL
Clouds: broken clouds at 600 feet AGL
Weather: no significant weather observed at this time

METAR text: KPNS 251412Z 35004KT 10SM FEW006 OVC070 19/18 A2984 RMK AO2 T01890178
Conditions at: KPNS (PENSACOLA , FL, US) observed 1412 UTC 25 February 2020
Temperature: 18.9°C (66°F)
Dewpoint: 17.8°C (64°F) [RH = 93%]
Pressure (altimeter): 29.84 inches Hg (1010.6 mb)
Winds: from the N (350 degrees) at 5 MPH (4 knots; 2.1 m/s)
Visibility: 10 or more miles (16+ km)
Ceiling: 7000 feet AGL
Clouds: few clouds at 600 feet AGL
overcast cloud deck at 7000 feet AGL
Weather: no significant weather observed at this time

METAR text: KPNS 251353Z 34003KT 10SM BKN065 OVC080 19/18 A2984 RMK AO2 SLP106 T01890178
Conditions at: KPNS (PENSACOLA , FL, US) observed 1353 UTC 25 February 2020
Temperature: 18.9°C (66°F)
Dewpoint: 17.8°C (64°F) [RH = 93%]
Pressure (altimeter): 29.84 inches Hg (1010.6 mb)
[Sea-level pressure: 1010.6 mb]
Winds: from the NNW (340 degrees) at 3 MPH (3 knots; 1.5 m/s)
Visibility: 10 or more miles (16+ km)
Ceiling: 6500 feet AGL
Clouds: broken clouds at 6500 feet AGL
overcast cloud deck at 8000 feet AGL
Weather: no significant weather observed at this time

METAR text: KPNS 251253Z 29004KT 10SM OVC075 18/17 A2983 RMK AO2 SLP102 T01830172
Conditions at: KPNS (PENSACOLA , FL, US) observed 1253 UTC 25 February 2020
Temperature: 18.3°C (65°F)
Dewpoint: 17.2°C (63°F) [RH = 93%]
Pressure (altimeter): 29.83 inches Hg (1010.2 mb)
[Sea-level pressure: 1010.2 mb]
Winds: from the WNW (290 degrees) at 5 MPH (4 knots; 2.1 m/s)
Visibility: 10 or more miles (16+ km)
Ceiling: 7500 feet AGL
Clouds: overcast cloud deck at 7500 feet AGL
Weather: no significant weather observed at this time

METAR text: KPNS 251153Z 00000KT 10SM SCT025 BKN037 OVC070 19/18 A2981 RMK AO2 RAE04 SLP096 P0001 60007 70031 T01890178 10194 20183 53005
Conditions at: KPNS (PENSACOLA , FL, US) observed 1153 UTC 25 February 2020
Temperature: 18.9°C (66°F)
Dewpoint: 17.8°C (64°F) [RH = 93%]
Pressure (altimeter): 29.81 inches Hg (1009.6 mb)
[Sea-level pressure: 1009.6 mb]
Winds: calm
Visibility: 10 or more miles (16+ km)
Ceiling: 3700 feet AGL
Clouds: scattered clouds at 2500 feet AGL
broken clouds at 3700 feet AGL
overcast cloud deck at 7000 feet AGL
Weather: no significant weather observed at this time

METAR text: KPNS 251139Z AUTO 25004KT 10SM SCT025 SCT035 BKN048 19/18 A2981 RMK AO2 RAE04 P0001 T01890178
Conditions at: KPNS (PENSACOLA , FL, US) observed 1139 UTC 25 February 2020
Temperature: 18.9°C (66°F)
Dewpoint: 17.8°C (64°F) [RH = 93%]
Pressure (altimeter): 29.81 inches Hg (1009.6 mb)
Winds: from the WSW (250 degrees) at 5 MPH (4 knots; 2.1 m/s)
Visibility: 10 or more miles (16+ km)
Ceiling: 4800 feet AGL
Clouds: scattered clouds at 2500 feet AGL
scattered clouds at 3500 feet AGL
broken clouds at 4800 feet AGL
Weather: automated observation with no human augmentation;
there may or may not be significant weather present at this time

Forecast for: KPNS (PENSACOLA , FL, US)
Text: KPNS 261724Z 2618/2718 32014G22KT P6SM BKN050
Forecast period: 1800 to 2000 UTC 26 February 2020
Forecast type: FROM: standard forecast or significant change
Winds: from the NW (320 degrees) at 16 MPH (14 knots; 7.2 m/s)
gusting to 25 MPH (22 knots; 11.3 m/s)
Visibility: 6 or more miles 10+ km)
Ceiling: 5000 feet AGL
Clouds: broken clouds at 5000 feet AGL
Weather: no significant weather forecast for this period
Text: FM262000 31017G25KT P6SM BKN090
Forecast period: 2000 UTC 26 February 2020 to 0000 UTC 27 February 2020
Forecast type: FROM: standard forecast or significant change
Winds: from the NW (310 degrees) at 20 MPH (17 knots; 8.7 m/s)
gusting to 29 MPH (25 knots; 12.9 m/s)
Visibility: 6 or more miles 10+ km)
Ceiling: 9000 feet AGL
Clouds: broken clouds at 9000 feet AGL
Weather: no significant weather forecast for this period
Text: FM270000 33010G15KT P6SM FEW180
Forecast period: 0000 to 1200 UTC 27 February 2020
Forecast type: FROM: standard forecast or significant change
Winds: from the NNW (330 degrees) at 12 MPH (10 knots; 5.1 m/s)
gusting to 17 MPH (15 knots; 7.7 m/s)
Visibility: 6 or more miles 10+ km)
Ceiling: at least 12,000 feet AGL
Clouds: few clouds at 18000 feet AGL
Weather: no significant weather forecast for this period
Text: FM271200 33009KT P6SM SKC
Forecast period: 1200 to 1800 UTC 27 February 2020
Forecast type: FROM: standard forecast or significant change
Winds: from the NNW (330 degrees) at 10 MPH (9 knots; 4.6 m/s)
Visibility: 6 or more miles 10+ km)
Clouds: clear skies
Weather: no significant weather forecast for this period